Аэропорт: Ровно. Ровно

ICAO: UKLR

METAR:
2022-01-28 08:00:00
UKLR 280800Z 24009MPS 9999 -SHSN BKN006 BKN017CB 01/M01 Q1003 NOSIG
METAR:
2022-01-28 05:13:00
TAF UKLR 280513Z 2806/2815 26007G12MPS 9999 BKN007 BKN013CB TX02/2812Z TN01/2806Z TEMPO 2806/2812 28011G17MPS 1000 SHSNRA BR BKN003 BKN013CB TEMPO 2812/2815 30011G17MPS 2100 -SHRASN BKN005 BKN013CB